Gaz Venture — 3FLQ4 — position and weather

sailwx.info

Track history (hours):
 
Tides and Currents Weather Stations Pressure Air Temp Water Temp Dewpoint Dewpoint Depression Visibility Wind Speed Wind Dir Waves Ship Positions

Gaz Venture

Last reported at 2015-Mar-26 15:13 UTC. Time now 2015-Mar-30 17:36 UTC.
Position N 35°28' E 014°52'.

Length 120 m; draft 8 m.

Type: Tanker. MMSI: 356141000.

Date/timePositionNaut miles runAvg speedWind from/ knotsBaromVisibWave heightAir tempDewpointWater temp
2015-Mar-26 15:13N 35°28' E 014°52'12 1.1
2015-Mar-26 04:09N 35°37' E 014°42'1 1.2
2015-Mar-26 03:33N 35°37' E 014°43'1 1.1
2015-Mar-26 02:33N 35°37' E 014°45'1 1.1
2015-Mar-26 01:33N 35°36' E 014°46'1 1.0
2015-Mar-26 00:33N 35°36' E 014°47'1 1.0
2015-Mar-25 23:33N 35°36' E 014°48'1 1.1
2015-Mar-25 22:33N 35°35' E 014°50'1 1.1
2015-Mar-25 21:33N 35°35' E 014°51'1 1.1
2015-Mar-25 20:33N 35°34' E 014°52'1 1.0
2015-Mar-25 19:33N 35°34' E 014°53'1 0.9
2015-Mar-25 18:16N 35°33' E 014°54'1 0.7
2015-Mar-25 17:23N 35°33' E 014°55'22 0.7
2015-Mar-24 10:29N 35°53' E 014°45'10 0.8
2015-Mar-23 22:06N 35°43' E 014°44'814.3
2015-Mar-23 21:34N 35°36' E 014°42'1414.1
2015-Mar-23 20:34N 35°23' E 014°34'2914.4
2015-Mar-23 18:33N 35°00' E 014°13'93 1.9
2015-Mar-21 16:25N 36°10' E 015°27'  
Track history (hours):
 
Tides and Currents Weather Stations Pressure Air Temp Water Temp Dewpoint Dewpoint Depression Visibility Wind Speed Wind Dir Waves Ship Positions

Gaz Venture

Last reported at 2015-Mar-26 15:13 UTC. Time now 2015-Mar-30 17:36 UTC.
Position N 35°28' E 014°52'.

Length 120 m; draft 8 m.

Type: Tanker. MMSI: 356141000.

Date/timePositionNaut miles runAvg speedWind from/ knotsBaromVisibWave heightAir tempDewpointWater temp
2015-Mar-26 15:13N 35°28' E 014°52'12 1.1
2015-Mar-26 04:09N 35°37' E 014°42'1 1.2
2015-Mar-26 03:33N 35°37' E 014°43'1 1.1
2015-Mar-26 02:33N 35°37' E 014°45'1 1.1
2015-Mar-26 01:33N 35°36' E 014°46'1 1.0
2015-Mar-26 00:33N 35°36' E 014°47'1 1.0
2015-Mar-25 23:33N 35°36' E 014°48'1 1.1
2015-Mar-25 22:33N 35°35' E 014°50'1 1.1
2015-Mar-25 21:33N 35°35' E 014°51'1 1.1
2015-Mar-25 20:33N 35°34' E 014°52'1 1.0
2015-Mar-25 19:33N 35°34' E 014°53'1 0.9
2015-Mar-25 18:16N 35°33' E 014°54'1 0.7
2015-Mar-25 17:23N 35°33' E 014°55'22 0.7
2015-Mar-24 10:29N 35°53' E 014°45'10 0.8
2015-Mar-23 22:06N 35°43' E 014°44'814.3
2015-Mar-23 21:34N 35°36' E 014°42'1414.1
2015-Mar-23 20:34N 35°23' E 014°34'2914.4
2015-Mar-23 18:33N 35°00' E 014°13'93 1.9
2015-Mar-21 16:25N 36°10' E 015°27'  

Dump ship's entire track history